Youree, Louisiana
Current Conditions -  °F | °C
As of 12:58 PM on Friday 24 Oct 2014 (Local Time) from KBAD Reporting Station
Clear Clear  
Wind Chill: 73°   Ceiling: Unl
Heat Index: 73°   Visibility: 10mi
Dew Point: 47°   Wind: 3mph
Humidity: 40%   Direction: 10°N
Pressure: 30.15"   Gusts: NA
Location:  32.457°N, 93.7096°W
Report Text: KBAD 241758Z AUTO 01003KT 10SM CLR 23/09 A3015 RMK AO2 SLP212 T02270086 10227 20086 58013
Loading
Personal Weather Stations






























Interactive Weather Map
Tropical Storm Tracking
New forecast layout! Learn more

10-Day Weather Forecast

Advertisements
Track Severe Weather on mobile